Wabasso, Florida
Current Conditions -  °F | °C
As of 10:53 AM on Saturday 25 Oct 2014 (Local Time) from KVRB Reporting Station
Clear Clear  
Wind Chill: 76°   Ceiling: Unl
Heat Index: 76°   Visibility: 10mi
Dew Point: 61°   Wind: 12mph
Humidity: 60%   Direction: 350°N
Pressure: 29.96"   Gusts: NA
Location:  27.75°N, 80.44°W
Report Text: KVRB 251453Z 35010KT 10SM CLR 24/16 A2996 RMK AO2 SLP145 T02440161 50007
Loading
Personal Weather Stations






























Interactive Weather Map
Tropical Storm Tracking
New forecast layout! Learn more

10-Day Weather Forecast

Advertisements
Track Severe Weather on mobile